Time;durP1;ratioP1;P1;durP2;ratioP2;P2;SDS_P1;SDS_P2;PMS_P1;PMS_P2;Temp;Humidity;BMP_temperature;BMP_pressure;BME280_temperature;BME280_humidity;BME280_pressure;Samples;Min_cycle;Max_cycle;Signal;HPM_P1;HPM_P2
2023/07/22 00:00:31;;;;;;;12.20;8.60;;;;;;;17.43;100.00;98563.87;273295;1269;22170;-80
2023/07/22 00:06:53;;;;;;;18.90;8.50;;;;;;;17.38;100.00;98562.55;273075;1269;23711;-80
2023/07/22 00:12:54;;;;;;;12.10;8.70;;;;;;;17.36;100.00;98568.13;272876;1269;22463;-79
2023/07/22 00:18:56;;;;;;;11.70;7.90;;;;;;;17.31;100.00;98561.45;273265;1269;23401;-78
2023/07/22 00:25:00;;;;;;;9.50;8.40;;;;;;;17.23;100.00;98552.95;272280;1268;24177;-78
2023/07/22 00:31:19;;;;;;;11.50;7.50;;;;;;;17.19;100.00;98554.90;272276;1260;22436;-78
2023/07/22 00:37:21;;;;;;;10.70;7.80;;;;;;;17.15;100.00;98554.45;272053;1269;22444;-78
2023/07/22 00:43:25;;;;;;;8.90;7.00;;;;;;;17.13;100.00;98550.48;273164;1269;23241;-80
2023/07/22 00:49:27;;;;;;;13.80;7.70;;;;;;;17.08;100.00;98547.34;273682;1265;23209;-80
2023/07/22 00:55:33;;;;;;;8.40;7.40;;;;;;;17.07;100.00;98540.33;273393;1269;23382;-78
2023/07/22 01:01:34;;;;;;;12.00;7.00;;;;;;;17.06;100.00;98524.14;273546;1269;22180;-78
2023/07/22 01:07:38;;;;;;;10.10;7.20;;;;;;;17.06;100.00;98514.89;273531;1268;22177;-78
2023/07/22 01:13:40;;;;;;;10.20;7.10;;;;;;;17.03;100.00;98497.84;273529;1269;22545;-78
2023/07/22 01:19:44;;;;;;;10.10;7.60;;;;;;;16.95;100.00;98494.15;273348;1257;23421;-78
2023/07/22 01:25:46;;;;;;;8.90;7.10;;;;;;;16.93;100.00;98481.54;273222;1269;22399;-77
2023/07/22 01:32:10;;;;;;;8.50;7.00;;;;;;;16.86;100.00;98486.54;273420;1269;22377;-78
2023/07/22 01:38:12;;;;;;;9.70;7.30;;;;;;;16.85;100.00;98482.20;272415;1269;22184;-77
2023/07/22 01:44:14;;;;;;;7.70;6.90;;;;;;;16.82;100.00;98484.01;272605;1268;22463;-77
2023/07/22 01:50:20;;;;;;;10.80;7.40;;;;;;;16.78;100.00;98491.92;272843;1261;23635;-78
2023/07/22 01:56:23;;;;;;;8.90;7.60;;;;;;;16.75;100.00;98499.88;273552;1269;22502;-77
2023/07/22 02:02:25;;;;;;;8.80;6.40;;;;;;;16.72;100.00;98505.48;273520;1265;22486;-78
2023/07/22 02:08:26;;;;;;;9.10;7.00;;;;;;;16.68;100.00;98516.22;273547;1269;22357;-79
2023/07/22 02:14:28;;;;;;;11.20;7.00;;;;;;;16.57;100.00;98521.83;273317;1270;22332;-78
2023/07/22 02:20:30;;;;;;;10.30;6.30;;;;;;;16.56;100.00;98527.94;273373;1269;22915;-79
2023/07/22 02:26:31;;;;;;;8.10;6.90;;;;;;;16.57;100.00;98535.88;273523;1269;23625;-78
2023/07/22 02:32:33;;;;;;;9.00;6.90;;;;;;;16.57;100.00;98540.77;273338;1269;22200;-79
2023/07/22 02:38:35;;;;;;;8.50;6.30;;;;;;;16.55;100.00;98536.55;273587;1260;22245;-78
2023/07/22 02:44:51;;;;;;;7.60;6.10;;;;;;;16.53;100.00;98538.39;273472;1269;22222;-78
2023/07/22 02:50:53;;;;;;;6.20;5.40;;;;;;;16.44;100.00;98547.08;273170;1268;22220;-78
2023/07/22 02:56:55;;;;;;;7.40;5.30;;;;;;;16.41;100.00;98553.13;273469;1254;22478;-79
2023/07/22 03:03:18;;;;;;;6.80;5.50;;;;;;;16.39;100.00;98558.14;273580;1257;22431;-78
2023/07/22 03:09:40;;;;;;;8.90;5.10;;;;;;;16.36;100.00;98556.13;273412;1268;22498;-78
2023/07/22 03:15:43;;;;;;;5.90;5.30;;;;;;;16.37;100.00;98555.73;273397;1269;123434;-79
2023/07/22 03:21:45;;;;;;;7.10;5.90;;;;;;;16.36;100.00;98554.95;273347;1269;22708;-78
2023/07/22 03:27:46;;;;;;;6.30;5.70;;;;;;;16.33;100.00;98555.18;273242;1269;23876;-79
2023/07/22 03:33:49;;;;;;;6.20;5.60;;;;;;;16.32;100.00;98564.83;273353;1269;22403;-79
2023/07/22 03:40:10;;;;;;;6.70;5.00;;;;;;;16.33;100.00;98574.50;273234;1268;22313;-79
2023/07/22 03:46:13;;;;;;;6.50;5.40;;;;;;;16.29;100.00;98573.48;273422;1267;22284;-78
2023/07/22 03:52:18;;;;;;;8.20;4.70;;;;;;;16.28;100.00;98575.94;273423;1263;23269;-79
2023/07/22 03:58:20;;;;;;;8.40;5.20;;;;;;;16.31;100.00;98572.73;273452;1269;22619;-79
2023/07/22 04:04:26;;;;;;;9.00;5.20;;;;;;;16.36;100.00;98574.13;273538;1269;22237;-78
2023/07/22 04:10:29;;;;;;;8.10;5.10;;;;;;;16.42;100.00;98583.33;273133;1256;22365;-79
2023/07/22 04:16:31;;;;;;;7.20;4.80;;;;;;;16.43;100.00;98593.73;273169;1268;22475;-78
2023/07/22 04:22:33;;;;;;;7.40;4.80;;;;;;;16.43;100.00;98608.09;272890;1261;25559;-78
2023/07/22 04:28:34;;;;;;;7.70;5.30;;;;;;;16.47;100.00;98613.73;272111;1268;22559;-78
2023/07/22 04:34:36;;;;;;;12.80;6.70;;;;;;;16.49;100.00;98616.55;271754;1268;22334;-79
2023/07/22 04:40:43;;;;;;;10.70;6.70;;;;;;;16.52;100.00;98629.75;272525;1268;22331;-81
2023/07/22 04:46:45;;;;;;;;;;;;;;;16.54;100.00;98645.10;272783;1259;23301;-80
2023/07/22 04:52:48;;;;;;;10.10;7.40;;;;;;;16.62;100.00;98651.58;272367;1269;22297;-81
2023/07/22 04:58:49;;;;;;;10.60;7.60;;;;;;;16.70;100.00;98652.15;273195;1258;22499;-79
2023/07/22 05:04:51;;;;;;;10.90;8.50;;;;;;;16.78;100.00;98658.85;272821;1269;22302;-79
2023/07/22 05:10:56;;;;;;;10.40;8.80;;;;;;;16.90;100.00;98659.50;273322;1256;22383;-79
2023/07/22 05:16:58;;;;;;;12.20;8.90;;;;;;;16.99;100.00;98665.09;273162;1266;22194;-79
2023/07/22 05:22:59;;;;;;;14.00;9.60;;;;;;;17.03;100.00;98671.40;273491;1253;23713;-79
2023/07/22 05:29:01;;;;;;;13.40;8.80;;;;;;;17.03;100.00;98678.13;273537;1266;22416;-79
2023/07/22 05:35:04;;;;;;;18.70;10.00;;;;;;;17.01;100.00;98679.11;273503;1264;22903;-79
2023/07/22 05:41:08;;;;;;;12.20;9.10;;;;;;;17.02;100.00;98684.95;272637;1257;22733;-79
2023/07/22 05:47:10;;;;;;;13.60;8.90;;;;;;;17.01;100.00;98689.63;272839;1257;22227;-79
2023/07/22 05:53:12;;;;;;;10.80;7.80;;;;;;;16.96;100.00;98695.41;273371;1266;22394;-80
2023/07/22 05:59:53;;;;;;;10.60;8.00;;;;;;;16.89;100.00;98695.86;273171;1267;23576;-80
2023/07/22 06:05:54;;;;;;;10.30;8.00;;;;;;;16.85;100.00;98702.55;272897;1266;22392;-80
2023/07/22 06:12:11;;;;;;;11.50;7.80;;;;;;;16.91;100.00;98702.69;273546;1268;22473;-80
2023/07/22 06:18:15;;;;;;;12.30;8.70;;;;;;;16.97;100.00;98718.45;273675;1268;23468;-79
2023/07/22 06:24:17;;;;;;;14.00;8.30;;;;;;;17.03;100.00;98721.42;273657;1267;23718;-79
2023/07/22 06:30:38;;;;;;;13.50;9.40;;;;;;;17.18;100.00;98719.39;273386;1255;22316;-79
2023/07/22 06:36:39;;;;;;;13.30;9.30;;;;;;;17.35;100.00;98722.45;273731;1267;22385;-80
2023/07/22 06:42:41;;;;;;;13.70;10.00;;;;;;;17.53;100.00;98727.88;273803;1267;22471;-80
2023/07/22 06:48:43;;;;;;;14.50;9.40;;;;;;;17.73;100.00;98735.34;273695;1267;23219;-80
2023/07/22 06:54:44;;;;;;;11.70;9.80;;;;;;;17.92;100.00;98738.80;273726;1268;22559;-80
2023/07/22 07:01:07;;;;;;;13.10;9.50;;;;;;;17.93;100.00;98741.32;273846;1269;22369;-80
2023/07/22 07:07:29;;;;;;;10.90;9.50;;;;;;;18.00;100.00;98751.60;273830;1267;22411;-80
2023/07/22 07:13:55;;;;;;;10.90;8.60;;;;;;;18.14;100.00;98752.16;273850;1267;22160;-78
2023/07/22 07:19:56;;;;;;;9.10;8.00;;;;;;;18.49;100.00;98761.55;273658;1253;23412;-78
2023/07/22 07:25:58;;;;;;;9.60;7.20;;;;;;;18.88;100.00;98770.80;273844;1267;23183;-78
2023/07/22 07:32:00;;;;;;;9.00;6.70;;;;;;;19.13;100.00;98780.77;273855;1267;22368;-77
2023/07/22 07:38:04;;;;;;;9.10;6.60;;;;;;;19.30;100.00;98784.29;273848;1259;22661;-78
2023/07/22 07:44:15;;;;;;;8.70;5.40;;;;;;;19.58;100.00;98787.17;273657;1262;23357;-78
2023/07/22 07:50:47;;;;;;;7.00;5.20;;;;;;;20.00;100.00;98792.44;272563;1266;22577;-81
2023/07/22 07:57:41;;;;;;;6.80;5.20;;;;;;;20.22;100.00;98804.74;272524;1272;22415;-80
2023/07/22 08:03:50;;;;;;;7.20;4.90;;;;;;;20.11;100.00;98814.27;271817;1272;22222;-80
2023/07/22 08:10:29;;;;;;;;;;;;;;;;;;;;;
2023/07/22 08:17:02;;;;;;;4.40;3.30;;;;;;;20.46;100.00;98824.39;271605;1269;23955;-80
2023/07/22 08:24:07;;;;;;;4.40;3.10;;;;;;;20.70;100.00;98822.61;272251;1268;22514;-83
2023/07/22 08:30:07;;;;;;;4.20;2.80;;;;;;;20.72;100.00;98833.36;273388;1267;22621;-79
2023/07/22 08:36:09;;;;;;;4.00;3.10;;;;;;;20.70;100.00;98836.83;273903;1268;22416;-81
2023/07/22 08:42:51;;;;;;;4.00;3.00;;;;;;;20.82;100.00;98847.08;273904;1268;23737;-82
2023/07/22 08:49:15;;;;;;;4.70;2.90;;;;;;;20.83;99.71;98861.67;273662;1269;22812;-81
2023/07/22 08:55:18;;;;;;;4.30;3.10;;;;;;;20.91;98.67;98871.19;273852;1269;23808;-79
2023/07/22 09:01:20;;;;;;;3.00;2.50;;;;;;;20.95;98.14;98868.05;273003;1269;26194;-79
2023/07/22 09:07:22;;;;;;;3.30;2.50;;;;;;;21.12;97.14;98871.31;272498;1269;22424;-79
2023/07/22 09:14:10;;;;;;;;;;;;;;;;;;;;;
2023/07/22 09:21:10;;;;;;;4.00;2.40;;;;;;;21.36;94.26;98887.46;273455;1269;22444;-79
2023/07/22 09:27:58;;;;;;;3.70;2.40;;;;;;;21.68;94.10;98881.89;273105;1264;22363;-81
2023/07/22 09:42:32;;;;;;;3.20;2.30;;;;;;;22.72;90.28;98899.19;273182;1268;22408;-81
2023/07/22 09:48:50;;;;;;;3.00;1.90;;;;;;;22.97;87.93;98898.67;273286;1269;22400;-80
2023/07/22 09:55:35;;;;;;;;;;;;;;;;;;;;;
2023/07/22 10:01:46;;;;;;;4.10;2.30;;;;;;;23.05;84.73;98890.44;273605;1264;23300;-79
2023/07/22 10:07:49;;;;;;;3.00;1.60;;;;;;;23.81;83.97;98890.67;273549;1268;22532;-80
2023/07/22 10:13:53;;;;;;;3.30;1.60;;;;;;;24.57;81.33;98891.63;273706;1269;22500;-80
2023/07/22 10:19:55;;;;;;;3.10;1.60;;;;;;;25.08;79.79;98892.80;273551;1269;23237;-80
2023/07/22 10:26:14;;;;;;;;;;;;;;;;;;;;;
2023/07/22 10:32:36;;;;;;;1.90;1.70;;;;;;;25.83;77.30;98892.20;273550;1270;22199;-79
2023/07/22 10:39:07;;;;;;;2.10;1.70;;;;;;;26.03;74.55;98888.50;273566;1269;22534;-80
2023/07/22 10:45:31;;;;;;;6.50;2.10;;;;;;;26.04;72.86;98880.21;273321;1269;22230;-81
2023/07/22 10:51:36;;;;;;;4.60;1.30;;;;;;;25.93;71.76;98884.46;273378;1268;22780;-79
2023/07/22 10:57:49;;;;;;;3.50;1.60;;;;;;;25.82;69.94;98878.95;273405;1259;22379;-81
2023/07/22 11:04:46;;;;;;;1.40;1.20;;;;;;;25.86;68.50;98881.84;273397;1269;22448;-80
2023/07/22 11:11:20;;;;;;;2.50;1.40;;;;;;;25.78;66.39;98886.83;273769;1259;22331;-82
2023/07/22 11:17:30;;;;;;;3.80;1.30;;;;;;;26.08;65.20;98881.59;273796;1263;22346;-80
2023/07/22 11:23:34;;;;;;;3.10;1.30;;;;;;;26.47;64.39;98878.73;273546;1269;22398;-80
2023/07/22 11:29:36;;;;;;;2.40;1.40;;;;;;;26.79;63.36;98880.02;273580;1261;23269;-80
2023/07/22 11:35:42;;;;;;;2.60;1.20;;;;;;;26.93;61.81;98877.13;273750;1261;22207;-80
2023/07/22 11:42:33;;;;;;;2.60;1.70;;;;;;;27.07;61.08;98869.66;273434;1269;22501;-79
2023/07/22 11:49:25;;;;;;;3.10;1.50;;;;;;;27.30;60.25;98871.39;273442;1266;22407;-80
2023/07/22 11:55:27;;;;;;;3.20;1.20;;;;;;;27.26;59.13;98875.06;273138;1267;22563;-82
2023/07/22 12:01:32;;;;;;;2.40;1.40;;;;;;;27.11;58.51;98878.40;273569;1269;23117;-78
2023/07/22 12:07:36;;;;;;;4.20;1.50;;;;;;;26.71;58.49;98877.89;271765;1269;23979;-83
2023/07/22 12:13:38;;;;;;;5.20;1.80;;;;;;;26.25;58.01;98876.02;273317;1268;23666;-79
2023/07/22 12:19:50;;;;;;;2.10;1.50;;;;;;;25.75;57.50;98873.95;272477;1260;22392;-78
2023/07/22 12:26:22;;;;;;;1.80;1.30;;;;;;;25.34;57.86;98866.61;270598;1270;25211;-80
2023/07/22 12:33:04;;;;;;;1.60;1.40;;;;;;;25.11;57.96;98865.13;273195;1268;22441;-79
2023/07/22 12:39:37;;;;;;;3.20;1.90;;;;;;;24.94;58.24;98861.55;273228;1268;22272;-81
2023/07/22 12:45:38;;;;;;;1.90;1.40;;;;;;;24.70;58.17;98858.00;273672;1270;22173;-80
2023/07/22 12:51:40;;;;;;;2.60;1.50;;;;;;;24.49;57.97;98852.72;273596;1259;22380;-80
2023/07/22 12:57:42;;;;;;;2.70;1.40;;;;;;;24.37;57.34;98846.29;273504;1269;22191;-80
2023/07/22 13:03:44;;;;;;;2.90;1.50;;;;;;;24.23;56.31;98840.32;273653;1269;22225;-79
2023/07/22 13:10:30;;;;;;;3.50;1.50;;;;;;;24.07;56.88;98843.48;273477;1269;23885;-79
2023/07/22 13:16:32;;;;;;;1.70;1.10;;;;;;;23.98;56.81;98837.61;273860;1265;22381;-78
2023/07/22 13:22:35;;;;;;;4.10;1.80;;;;;;;23.96;56.92;98836.20;273766;1265;22161;-79
2023/07/22 13:28:36;;;;;;;6.00;1.60;;;;;;;23.94;56.50;98838.34;271506;1259;22527;-79
2023/07/22 13:34:38;;;;;;;2.40;1.90;;;;;;;23.94;56.39;98832.60;271571;1266;22611;-79
2023/07/22 13:40:40;;;;;;;2.40;1.80;;;;;;;23.97;56.73;98828.38;271561;1268;23340;-79
2023/07/22 13:46:42;;;;;;;2.10;1.90;;;;;;;23.91;56.16;98824.09;271795;1267;22404;-80
2023/07/22 13:52:44;;;;;;;2.60;1.80;;;;;;;23.83;56.52;98826.25;273698;1257;22199;-79
2023/07/22 13:58:45;;;;;;;3.10;2.00;;;;;;;23.73;56.62;98827.30;273805;1269;22488;-79
2023/07/22 14:04:47;;;;;;;3.20;1.90;;;;;;;23.79;56.75;98823.39;272378;1269;22218;-79
2023/07/22 14:10:49;;;;;;;2.90;1.80;;;;;;;23.73;56.85;98826.90;272187;1266;23485;-78
2023/07/22 14:17:12;;;;;;;;;;;;;;;;;;;;;
2023/07/22 14:23:40;;;;;;;;;;;;;;;;;;;;;
2023/07/22 14:30:08;;;;;;;2.40;1.80;;;;;;;23.02;57.10;98827.20;273399;1264;22299;-80
2023/07/22 14:36:10;;;;;;;3.40;1.80;;;;;;;22.84;57.05;98825.88;273652;1269;22226;-78
2023/07/22 14:42:12;;;;;;;3.30;1.50;;;;;;;22.69;56.96;98827.82;273847;1267;23614;-81
2023/07/22 14:48:14;;;;;;;2.30;1.60;;;;;;;22.58;56.91;98827.48;273543;1269;22554;-79
2023/07/22 14:54:16;;;;;;;4.30;1.80;;;;;;;22.55;56.57;98829.18;272395;1269;22394;-79
2023/07/22 15:00:18;;;;;;;3.90;2.10;;;;;;;22.56;56.68;98832.51;273572;1265;22428;-81
2023/07/22 15:06:19;;;;;;;3.40;1.60;;;;;;;22.52;57.26;98835.20;273430;1269;22543;-80
2023/07/22 15:12:21;;;;;;;4.70;2.00;;;;;;;22.38;57.32;98838.52;273893;1267;22775;-78
2023/07/22 15:18:23;;;;;;;5.40;2.10;;;;;;;22.16;57.04;98838.81;273775;1269;117639;-79
2023/07/22 15:24:25;;;;;;;3.70;2.10;;;;;;;21.99;56.91;98842.98;273792;1269;22364;-79
2023/07/22 15:30:26;;;;;;;3.10;1.80;;;;;;;21.90;56.93;98849.02;273774;1269;22494;-79
2023/07/22 15:36:28;;;;;;;3.60;2.30;;;;;;;21.99;57.02;98845.58;273732;1260;22377;-79
2023/07/22 15:42:30;;;;;;;3.00;1.90;;;;;;;22.17;56.53;98841.64;273687;1268;22938;-80
2023/07/22 15:48:32;;;;;;;3.20;2.00;;;;;;;22.30;56.64;98835.33;273706;1267;22218;-80
2023/07/22 15:54:34;;;;;;;2.90;2.30;;;;;;;22.34;56.57;98831.77;273168;1267;22396;-79
2023/07/22 16:00:35;;;;;;;4.20;2.40;;;;;;;22.33;57.01;98833.79;273811;1269;23135;-80
2023/07/22 16:06:37;;;;;;;3.20;2.40;;;;;;;22.26;57.03;98834.77;273637;1269;22444;-79
2023/07/22 16:12:39;;;;;;;3.90;2.50;;;;;;;22.18;57.21;98836.41;273776;1267;22393;-78
2023/07/22 16:18:40;;;;;;;3.70;2.40;;;;;;;22.11;57.10;98836.37;272572;1267;22572;-79
2023/07/22 16:24:42;;;;;;;5.60;2.40;;;;;;;22.04;57.56;98834.57;271029;1269;22992;-79
2023/07/22 16:30:44;;;;;;;3.90;2.50;;;;;;;21.93;57.75;98834.84;272055;1269;22635;-79
2023/07/22 16:36:46;;;;;;;3.50;2.20;;;;;;;21.87;57.62;98838.02;273796;1261;23195;-79
2023/07/22 16:42:47;;;;;;;2.90;2.00;;;;;;;21.83;57.90;98840.24;273325;1254;23218;-82
2023/07/22 16:48:49;;;;;;;3.50;2.80;;;;;;;21.77;58.24;98841.33;273793;1269;22218;-80
2023/07/22 16:54:55;;;;;;;4.00;2.40;;;;;;;21.69;58.17;98846.65;273675;1258;23865;-81
2023/07/22 17:00:57;;;;;;;3.20;2.00;;;;;;;21.62;58.17;98845.64;265561;1257;10002572;-80
2023/07/22 17:06:58;;;;;;;3.30;2.30;;;;;;;21.58;58.35;98848.35;273593;1254;22401;-78
2023/07/22 17:13:00;;;;;;;3.30;2.30;;;;;;;21.51;58.66;98852.49;273774;1264;23032;-81
2023/07/22 17:19:02;;;;;;;3.30;2.50;;;;;;;21.47;58.48;98859.64;273711;1260;23445;-79
2023/07/22 17:25:04;;;;;;;2.80;2.30;;;;;;;21.39;58.45;98865.88;273505;1263;23155;-79
2023/07/22 17:31:05;;;;;;;3.80;2.50;;;;;;;21.31;58.51;98873.63;273640;1269;22410;-79
2023/07/22 17:37:07;;;;;;;2.30;2.10;;;;;;;21.24;58.82;98883.88;273649;1267;22371;-79
2023/07/22 17:43:09;;;;;;;2.80;2.30;;;;;;;21.20;59.24;98882.06;273533;1267;22380;-80
2023/07/22 17:49:10;;;;;;;5.60;2.80;;;;;;;21.14;58.85;98887.86;273522;1264;22527;-79
2023/07/22 17:55:12;;;;;;;3.90;2.90;;;;;;;21.06;59.16;98891.30;273610;1267;22406;-80
2023/07/22 18:01:14;;;;;;;5.00;2.90;;;;;;;21.01;59.24;98890.60;273439;1270;22414;-80
2023/07/22 18:07:16;;;;;;;4.10;2.70;;;;;;;20.97;59.75;98887.56;273135;1267;24291;-79
2023/07/22 18:13:17;;;;;;;3.60;2.80;;;;;;;20.89;60.06;98885.11;273590;1266;22408;-79
2023/07/22 18:19:19;;;;;;;5.70;3.20;;;;;;;20.78;61.07;98886.15;273627;1269;22763;-79
2023/07/22 18:25:22;;;;;;;4.80;3.50;;;;;;;20.64;62.15;98883.50;273658;1267;22433;-79
2023/07/22 18:31:24;;;;;;;6.70;4.10;;;;;;;20.55;62.75;98889.34;273606;1257;22385;-79
2023/07/22 18:37:26;;;;;;;5.20;3.80;;;;;;;20.50;64.20;98891.98;273085;1267;22458;-79
2023/07/22 18:43:28;;;;;;;6.50;4.90;;;;;;;20.36;63.57;98898.20;273485;1267;23395;-79
2023/07/22 18:49:30;;;;;;;6.70;4.50;;;;;;;20.21;63.11;98899.35;273499;1264;22298;-79
2023/07/22 18:55:37;;;;;;;7.40;4.60;;;;;;;20.18;64.60;98899.85;273575;1267;22553;-79
2023/07/22 19:01:41;;;;;;;7.20;4.80;;;;;;;20.13;65.28;98910.03;273474;1267;22322;-80
2023/07/22 19:07:42;;;;;;;10.60;5.70;;;;;;;20.07;65.63;98924.17;273478;1256;22372;-79
2023/07/22 19:13:57;;;;;;;9.90;5.10;;;;;;;20.04;68.08;98934.90;273266;1267;22590;-79
2023/07/22 19:19:59;;;;;;;6.50;5.10;;;;;;;19.97;68.20;98942.86;272799;1269;23671;-80
2023/07/22 19:26:01;;;;;;;7.00;4.50;;;;;;;19.90;68.64;98945.44;273666;1267;22400;-80
2023/07/22 19:32:03;;;;;;;6.20;4.20;;;;;;;19.70;69.51;98951.05;273686;1267;23107;-80
2023/07/22 19:38:05;;;;;;;7.60;5.20;;;;;;;19.45;69.71;98950.69;273723;1254;22395;-79
2023/07/22 19:44:07;;;;;;;5.90;4.70;;;;;;;19.13;70.19;98951.92;273599;1267;23645;-80
2023/07/22 19:50:09;;;;;;;7.30;5.60;;;;;;;18.99;71.23;98953.04;273632;1267;23708;-79
2023/07/22 19:56:11;;;;;;;6.40;5.10;;;;;;;18.91;73.28;98952.74;273650;1268;22194;-79
2023/07/22 20:02:13;;;;;;;10.70;5.80;;;;;;;18.76;74.40;98953.41;273725;1267;23233;-79
2023/07/22 20:08:15;;;;;;;10.10;5.80;;;;;;;18.61;74.82;98953.90;273710;1267;22396;-80
2023/07/22 20:14:20;;;;;;;9.10;6.10;;;;;;;18.45;75.10;98960.90;273034;1267;22404;-79
2023/07/22 20:20:22;;;;;;;14.20;5.00;;;;;;;18.20;76.59;98963.06;273601;1268;23166;-78
2023/07/22 20:26:24;;;;;;;8.00;6.30;;;;;;;17.97;76.84;98971.27;271817;1253;22557;-79
2023/07/22 20:32:25;;;;;;;9.50;6.30;;;;;;;17.82;76.92;98981.05;271811;1267;23255;-80
2023/07/22 20:38:27;;;;;;;9.50;5.70;;;;;;;17.67;78.19;98983.52;273765;1269;22611;-80
2023/07/22 20:44:28;;;;;;;11.70;7.20;;;;;;;17.52;79.31;98987.80;272342;1257;23284;-79
2023/07/22 20:50:32;;;;;;;11.70;6.70;;;;;;;17.22;78.80;98996.63;271555;1256;23801;-80
2023/07/22 20:56:34;;;;;;;13.50;8.80;;;;;;;16.99;79.42;98997.61;272466;1267;23332;-79
2023/07/22 21:02:36;;;;;;;11.90;9.30;;;;;;;16.94;80.81;98997.94;271453;1268;22683;-79
2023/07/22 21:08:37;;;;;;;14.70;9.20;;;;;;;16.86;81.13;98997.25;271901;1269;22383;-79
2023/07/22 21:14:39;;;;;;;12.60;9.20;;;;;;;16.64;82.07;98997.89;273823;1257;22406;-79
2023/07/22 21:20:41;;;;;;;15.60;9.70;;;;;;;16.49;83.02;99004.08;271086;1264;22568;-79
2023/07/22 21:26:43;;;;;;;12.10;8.30;;;;;;;16.43;83.20;99008.46;273394;1264;22432;-79
2023/07/22 21:32:44;;;;;;;14.40;8.10;;;;;;;16.33;83.78;99014.42;273763;1269;22292;-79
2023/07/22 21:38:46;;;;;;;12.10;8.80;;;;;;;16.23;84.56;99025.98;273805;1268;23849;-79
2023/07/22 21:44:47;;;;;;;14.30;9.80;;;;;;;16.07;85.09;99026.70;273804;1267;22925;-79
2023/07/22 21:50:49;;;;;;;12.00;9.40;;;;;;;15.95;85.52;99024.77;273818;1267;23122;-79
2023/07/22 21:56:51;;;;;;;13.80;9.00;;;;;;;15.84;86.28;99027.87;273794;1267;23556;-79
2023/07/22 22:02:52;;;;;;;12.90;9.00;;;;;;;15.72;86.87;99034.92;273775;1267;23764;-79
2023/07/22 22:08:54;;;;;;;17.00;8.80;;;;;;;15.63;87.03;99033.43;273487;1266;22181;-79
2023/07/22 22:14:56;;;;;;;13.30;8.60;;;;;;;15.50;87.47;99030.46;272648;1251;22563;-78
2023/07/22 22:20:57;;;;;;;12.70;9.30;;;;;;;15.35;88.06;99028.97;271890;1267;22434;-78
2023/07/22 22:26:59;;;;;;;13.90;9.90;;;;;;;15.23;88.50;99029.30;273187;1268;22441;-78
2023/07/22 22:33:01;;;;;;;16.70;10.30;;;;;;;15.09;89.11;99030.72;273798;1269;22428;-78
2023/07/22 22:39:03;;;;;;;16.10;10.30;;;;;;;14.99;89.75;99032.52;273770;1267;22193;-78
2023/07/22 22:45:05;;;;;;;13.80;11.30;;;;;;;14.93;90.23;99036.81;273873;1267;23253;-78
2023/07/22 22:51:07;;;;;;;18.00;11.30;;;;;;;14.83;90.50;99045.21;273828;1267;22168;-78
2023/07/22 22:57:08;;;;;;;28.10;17.30;;;;;;;14.70;90.72;99049.77;273719;1254;22425;-78
2023/07/22 23:03:10;;;;;;;21.20;16.10;;;;;;;14.59;91.22;99053.52;273790;1267;23490;-78
2023/07/22 23:09:13;;;;;;;23.60;16.60;;;;;;;14.53;91.54;99049.61;273842;1268;22490;-78
2023/07/22 23:15:15;;;;;;;21.10;15.10;;;;;;;14.46;91.91;99043.65;273906;1262;22236;-78
2023/07/22 23:21:17;;;;;;;26.70;16.10;;;;;;;14.37;92.19;99046.42;273391;1254;22563;-78
2023/07/22 23:27:19;;;;;;;20.50;13.90;;;;;;;14.24;92.56;99049.05;271260;1267;22550;-78
2023/07/22 23:33:25;;;;;;;20.80;13.90;;;;;;;14.17;92.80;99048.27;270490;1267;22274;-78
2023/07/22 23:39:27;;;;;;;21.30;14.10;;;;;;;14.13;93.16;99043.88;271952;1267;22216;-79
2023/07/22 23:45:28;;;;;;;20.70;14.60;;;;;;;14.04;93.44;99043.19;273643;1267;22379;-78
2023/07/22 23:51:30;;;;;;;23.50;13.60;;;;;;;13.95;93.68;99039.90;273837;1256;22459;-79
2023/07/22 23:57:31;;;;;;;21.30;12.90;;;;;;;13.84;93.58;99040.86;273807;1264;22604;-79
